Hauptseite
METAR-TAF:

METAR-TAF

Flughäfen :

Weeze, Deutschland

Flughafen Weeze

Breite: 51-36-09N, Länge: 006-08-32E, Höhe: 32 m

Beobachtung

Neuester Wetterbericht von vor 44 Minuten, um 14:20 UTC
Wind 11 kt aus West/Südwest
Temperatur 5°C
Luftfeuchtigkeit 81%
Luftdruck 1008 hPa
Sichtweite 10 km oder mehr
Aufgelockert bewölkt in der Höhe von 2100 ft

METAR: EDLV 191420Z 24011KT 9999 SCT021 05/02 Q1008

Zeit: 16:04 (15:04 UTC)

Prognose

Neuester Wetterbericht von vor 4 Stunden und 4 Minuten, um 11:00 UTC
Gültige Prognose vom 19 um 12 UTC bis 20 um 12 UTC
Wind 9 kt aus Südwest
Sichtweite 10 km oder mehr
Aufgelockert bewölkt in der Höhe von 2000 ft
Wahrscheinlichkeit 30% :
Zeitweise
vom 19 um 22 UTC bis 20 um 02 UTC
Durchbrochene Bewölkung in der Höhe von 800 ft

TAF: EDLV 191100Z 1912/2012 22009KT 9999 SCT020 PROB30 TEMPO 1922/2002 BKN008

Wetterbeobachtungen und Prognosen von mehr als 4000 Flughäfen (METAR und TAF Bericht).

Die verfügbaren Stationen werden durch gelbe und rote Markierungen auf der Karte dargestellt.

Führen Sie die Maus auf sie, um den Namen der Station zu sehen.

Darauf klicken, um die Beobachtung von Wetterbeobachtungen und Prognosen zu sehen.

Um die Karte zu ändern : klicken Sie auf den grünen Tasten mit einem schwarzen Kreuz Zum Vergrößern, auf den grünen Button mit einem Gedankenstrich zu verkleinern, oder auf die grünen Pfeile für benachbarte Karten.


METAR-TAF: